West Greenwich, Rhode Island
Current Conditions -  °F | °C
As of 2:51 PM on Monday 22 Dec 2014 (Local Time) from KPVD Reporting Station
Overcast Overcast  
Wind Chill: 37°   Ceiling: 4200
Heat Index: 43°   Visibility: 10mi
Dew Point: 38°   Wind: 10mph
Humidity: 82%   Direction: 50°NE
Pressure: 30.3"   Gusts: NA
Location:  41.63°N, 71.66°W
Report Text: KPVD 221951Z 05009KT 10SM FEW013 SCT021 OVC042 06/03 A3030 RMK AO2 SLP259 T00610033
Loading
Personal Weather Stations






























Interactive Weather Map New forecast layout! Learn more

10-Day Weather Forecast

Advertisements
Track Severe Weather on mobile